Flight Track Log - Related Links

Times and Time Zones

All times are in EDT time to prevent confusion due to time zone crossing. See the N885FT flight status page for this flight to view local times or setup timezone preferences in your user account.

Time Position Orientation Groundspeed Altitude Reporting Facility
EDT Latitude Longitude Course Direction KTS MPH feet Rate Location/Type
Tue 10:34:26 PM 25.9281 -80.5483 347° North 146 168 2,900  Level Miami Center
Tue 10:35:03 PM 25.9556 -80.5508 355° North 146 168 3,000 295 Climbing Miami Center
Tue 10:35:27 PM 25.9675 -80.5517 356° North 145 167 3,200 492 Climbing Miami Center
Tue 10:36:04 PM 25.9953 -80.5531 357° North 145 167 3,500 485 Climbing Miami Center
Tue 10:37:06 PM 26.0344 -80.5558 356° North 140 161 4,000 506 Climbing Miami Center
Tue 10:37:27 PM 26.0492 -80.5533 North 141 162 4,200 492 Climbing Miami Center
Tue 10:38:07 PM 26.0725 -80.5528 North 139 160 4,500 475 Climbing Miami Center
Tue 10:39:00 PM 26.0146 -80.3162 347° North  Level FlightAware Approximate
Tue 10:39:08 PM 26.1122 -80.5569 355° North 140 161 5,000  Level Miami Center
Tue 10:40:07 PM 26.1519 -80.5603 356° North 141 162 5,400 250 Climbing Miami Center
Tue 10:41:08 PM 26.1950 -80.5622 358° North 149 171 5,500 49 Climbing Miami Center
Tue 10:42:09 PM 26.2394 -80.5628 359° North 155 178 5,500  Level Miami Center
Tue 10:43:11 PM 26.2869 -80.5650 358° North 157 181 5,500  Level Miami Center
Tue 10:44:10 PM 26.3311 -80.5661 359° North 158 182 5,500  Level Miami Center
Tue 10:45:11 PM 26.3758 -80.5686 357° North 159 183 5,500  Level Miami Center
Tue 10:46:12 PM 26.4206 -80.5708 357° North 160 184 5,500  Level Miami Center
Tue 10:47:14 PM 26.4656 -80.5733 357° North 160 184 5,500  Level Miami Center
Tue 10:48:14 PM 26.5100 -80.5761 357° North 160 184 5,500  Level Miami Center
Tue 10:49:13 PM 26.5547 -80.5778 358° North 160 184 5,500  Level Miami Center
Tue 10:50:16 PM 26.6003 -80.5808 357° North 152 175 5,500  Level Miami Center
Tue 10:51:14 PM 26.6414 -80.5814 359° North 149 171 5,500  Level Miami Center
Tue 10:52:15 PM 26.6811 -80.5847 356° North 146 168 5,500  Level Miami Center
Tue 10:53:15 PM 26.7217 -80.5856 359° North 145 167 5,500  Level Miami Center
Tue 10:54:18 PM 26.7622 -80.5878 357° North 146 168 5,500  Level Miami Center
Tue 10:55:18 PM 26.8028 -80.5883 359° North 145 167 5,500  Level Miami Center
Tue 10:56:19 PM 26.8450 -80.5906 357° North 145 167 5,500  Level Miami Center
Tue 10:57:20 PM 26.8836 -80.5922 358° North 144 166 5,500  Level Miami Center
Tue 10:58:21 PM 26.9253 -80.5931 359° North 144 166 5,500  Level Miami Center
Tue 10:59:19 PM 26.9639 -80.5958 356° North 143 165 5,500  Level Miami Center
Tue 11:00:22 PM 27.0058 -80.5972 358° North 144 166 5,500  Level Miami Center
Tue 11:01:22 PM 27.0447 -80.5994 357° North 144 166 5,500  Level Miami Center
Tue 11:02:21 PM 27.0867 -80.6014 358° North 145 167 5,500  Level Miami Center
Tue 11:03:23 PM 27.1253 -80.6042 356° North 144 166 5,500  Level Miami Center
Tue 11:04:24 PM 27.1675 -80.6058 358° North 145 167 5,500  Level Miami Center
Tue 11:05:25 PM 27.2092 -80.6075 358° North 144 166 5,500  Level Miami Center
Tue 11:06:26 PM 27.2478 -80.6092 358° North 144 166 5,500  Level Miami Center
Tue 11:07:25 PM 27.2894 -80.6114 357° North 144 166 5,500  Level Miami Center
Tue 11:08:26 PM 27.3283 -80.6131 358° North 144 166 5,500  Level Miami Center
Tue 11:09:27 PM 27.3711 -80.6158 357° North 145 167 5,500  Level Miami Center
Tue 11:10:29 PM 27.4117 -80.6172 358° North 144 166 5,500  Level Miami Center
Tue 11:11:29 PM 27.4506 -80.6186 358° North 144 166 5,500  Level Miami Center
Tue 11:12:29 PM 27.4928 -80.6214 357° North 144 166 5,500  Level Miami Center
Tue 11:13:31 PM 27.5311 -80.6233 357° North 144 166 5,500  Level Miami Center
Tue 11:14:29 PM 27.5731 -80.6247 358° North 144 166 5,500  Level Miami Center
Tue 11:15:32 PM 27.6150 -80.6253 359° North 144 166 5,500  Level Miami Center
Tue 11:16:33 PM 27.6536 -80.6261 359° North 144 166 5,500  Level Miami Center
Tue 11:17:32 PM 27.6956 -80.6292 356° North 144 166 5,500  Level Miami Center

Login

Don't have an account? Register now (free) for customized features, flight alerts, and more!